createdAt,value
2023-01-01T00:00:43.599Z,38.10
2023-01-01T00:03:10.581Z,48.47
2023-01-01T00:05:40.450Z,35.73
2023-01-01T00:08:07.559Z,39.53
2023-01-01T00:10:34.407Z,39.37
2023-01-01T00:13:01.585Z,31.30
2023-01-01T00:15:29.039Z,38.67
2023-01-01T00:17:57.596Z,37.37
2023-01-01T00:20:26.659Z,28.40
2023-01-01T00:22:57.099Z,24.47
2023-01-01T00:25:25.188Z,21.97
2023-01-01T00:27:52.221Z,19.57
2023-01-01T00:30:19.706Z,17.20
2023-01-01T00:32:55.391Z,18.47
2023-01-01T00:35:26.523Z,17.97
2023-01-01T00:37:54.584Z,14.23
2023-01-01T00:40:21.616Z,7.97
2023-01-01T00:42:48.429Z,5.00
2023-01-01T00:45:20.937Z,3.80
2023-01-01T00:47:53.070Z,8.60
2023-01-01T00:50:21.830Z,4.80
2023-01-01T00:52:49.964Z,4.50
2023-01-01T00:55:16.970Z,8.77
2023-01-01T00:57:43.898Z,5.90
2023-01-01T01:00:11.964Z,5.20
2023-01-01T01:02:39.003Z,3.90
2023-01-01T01:05:06.933Z,5.77
2023-01-01T01:07:36.136Z,6.50
2023-01-01T01:10:03.116Z,5.83
2023-01-01T01:12:29.972Z,2.63
2023-01-01T01:14:56.829Z,4.80
2023-01-01T01:17:24.209Z,5.20
2023-01-01T01:19:51.046Z,3.77
2023-01-01T01:22:21.529Z,4.10
2023-01-01T01:24:51.642Z,5.60
2023-01-01T01:27:18.474Z,4.67
2023-01-01T01:29:45.391Z,4.70
2023-01-01T01:32:12.942Z,1.97
2023-01-01T01:34:39.907Z,3.50
2023-01-01T01:37:06.816Z,2.40
2023-01-01T01:39:33.706Z,4.77
2023-01-01T01:42:03.487Z,2.87
2023-01-01T01:44:54.481Z,4.60
2023-01-01T01:47:47.470Z,3.40
2023-01-01T01:50:37.947Z,3.57
2023-01-01T01:53:22.437Z,2.27
2023-01-01T01:55:54.252Z,2.50
2023-01-01T01:58:21.695Z,1.67
2023-01-01T02:00:49.307Z,1.50
2023-01-01T02:03:27.780Z,1.83
2023-01-01T02:05:55.146Z,2.00
2023-01-01T02:08:22.164Z,1.13
2023-01-01T02:10:49.099Z,1.13
2023-01-01T02:13:16.368Z,1.80
2023-01-01T02:16:00.590Z,1.37
2023-01-01T02:18:41.990Z,0.93
2023-01-01T02:21:26.369Z,2.57
2023-01-01T02:24:17.392Z,1.20
2023-01-01T02:26:57.337Z,1.00
2023-01-01T02:29:54.160Z,1.70
2023-01-01T02:32:44.758Z,4.07
2023-01-01T02:35:38.759Z,1.87
2023-01-01T02:38:18.427Z,3.00
2023-01-01T02:40:54.951Z,5.37
2023-01-01T02:43:25.025Z,5.20
2023-01-01T02:45:54.198Z,5.70
2023-01-01T02:48:53.522Z,4.90
2023-01-01T02:51:23.060Z,5.30
2023-01-01T02:54:17.465Z,5.20
2023-01-01T02:57:41.486Z,3.40
2023-01-01T03:00:28.243Z,4.60
2023-01-01T03:03:28.340Z,3.50
2023-01-01T03:06:35.498Z,3.50
2023-01-01T03:09:21.361Z,3.00
2023-01-01T03:12:10.817Z,1.87
2023-01-01T03:14:40.259Z,1.80
2023-01-01T03:17:26.789Z,2.80
2023-01-01T03:19:56.255Z,2.77
2023-01-01T03:22:30.238Z,3.10
2023-01-01T03:25:12.546Z,3.03
2023-01-01T03:28:02.676Z,2.43
2023-01-01T03:30:31.194Z,2.27
2023-01-01T03:33:08.266Z,2.43
2023-01-01T03:35:50.758Z,3.50
2023-01-01T03:38:35.681Z,2.10
2023-01-01T03:41:45.309Z,1.87
2023-01-01T03:44:47.501Z,1.77
2023-01-01T03:47:14.782Z,2.27
2023-01-01T03:49:42.576Z,3.13
2023-01-01T03:52:27.456Z,1.67
2023-01-01T03:55:24.078Z,4.17
2023-01-01T03:58:25.174Z,3.40
2023-01-01T04:01:10.330Z,3.40
2023-01-01T04:03:39.417Z,1.10
2023-01-01T04:06:07.291Z,4.13
2023-01-01T04:08:35.698Z,3.00
2023-01-01T04:11:29.608Z,3.27
2023-01-01T04:13:57.100Z,1.33
2023-01-01T04:16:23.995Z,3.27
2023-01-01T04:18:51.207Z,1.53
2023-01-01T04:21:18.021Z,1.67
2023-01-01T04:23:44.897Z,3.50
2023-01-01T04:26:15.630Z,2.00
2023-01-01T04:28:43.067Z,2.80
2023-01-01T04:31:10.378Z,1.90
2023-01-01T04:33:37.534Z,3.17
2023-01-01T04:36:10.065Z,2.20
2023-01-01T04:38:38.388Z,3.10
2023-01-01T04:41:05.718Z,3.07
2023-01-01T04:43:33.000Z,2.83
2023-01-01T04:46:02.729Z,3.47
2023-01-01T04:48:31.215Z,3.23
2023-01-01T04:51:01.431Z,3.60
2023-01-01T04:53:34.493Z,3.27
2023-01-01T04:56:09.255Z,3.40
2023-01-01T04:58:38.385Z,1.97
2023-01-01T05:01:06.525Z,2.00
2023-01-01T05:03:33.824Z,2.40
2023-01-01T05:06:07.233Z,3.20
2023-01-01T05:08:37.125Z,2.80
2023-01-01T05:11:29.019Z,2.93
2023-01-01T05:13:59.465Z,2.73
2023-01-01T05:16:31.007Z,2.43
2023-01-01T05:18:58.399Z,2.37
2023-01-01T05:21:33.848Z,2.60
2023-01-01T05:24:04.578Z,0.80
2023-01-01T05:26:36.008Z,3.00
2023-01-01T05:29:04.029Z,1.97
2023-01-01T05:31:34.228Z,3.53
2023-01-01T05:36:38.976Z,1.43
2023-01-01T05:39:07.925Z,2.23
2023-01-01T05:41:36.501Z,2.00
2023-01-01T05:44:06.588Z,2.40
2023-01-01T05:46:33.656Z,2.80
2023-01-01T05:49:01.045Z,2.40
2023-01-01T05:51:29.636Z,2.80
2023-01-01T05:53:57.352Z,2.17
2023-01-01T05:56:24.880Z,1.60
2023-01-01T05:58:51.724Z,2.47
2023-01-01T06:01:24.443Z,1.70
2023-01-01T06:03:53.928Z,2.17
2023-01-01T06:06:25.827Z,2.87
2023-01-01T06:09:04.588Z,2.37
2023-01-01T06:11:32.996Z,1.20
2023-01-01T06:14:01.273Z,2.10
2023-01-01T06:16:30.346Z,1.87
2023-01-01T06:18:57.353Z,2.10
2023-01-01T06:21:26.590Z,0.60
2023-01-01T06:23:56.838Z,1.43
2023-01-01T06:26:29.163Z,1.67
2023-01-01T06:28:57.578Z,2.03
2023-01-01T06:31:24.807Z,2.00
2023-01-01T06:33:51.748Z,2.10
2023-01-01T06:36:22.372Z,0.90
2023-01-01T06:38:53.197Z,1.80
2023-01-01T06:41:26.280Z,1.70
2023-01-01T06:43:55.211Z,1.70
2023-01-01T06:46:28.792Z,2.30
2023-01-01T06:49:01.835Z,1.47
2023-01-01T06:51:36.900Z,2.00
2023-01-01T06:54:05.548Z,2.10
2023-01-01T06:56:33.130Z,2.43
2023-01-01T06:59:00.446Z,0.93
2023-01-01T07:01:31.240Z,2.10
2023-01-01T07:03:59.144Z,1.33
2023-01-01T07:06:27.589Z,2.00
2023-01-01T07:08:54.556Z,1.57
2023-01-01T07:11:21.684Z,1.80
2023-01-01T07:13:48.613Z,1.70
2023-01-01T07:16:15.620Z,1.57
2023-01-01T07:18:42.861Z,1.63
2023-01-01T07:21:32.210Z,1.70
2023-01-01T07:24:05.601Z,1.83
2023-01-01T07:26:33.810Z,1.80
2023-01-01T07:29:08.759Z,1.90
2023-01-01T07:31:41.315Z,1.30
2023-01-01T07:34:13.602Z,1.57
2023-01-01T07:36:41.180Z,1.30
2023-01-01T07:39:08.234Z,2.60
2023-01-01T07:41:35.105Z,2.07
2023-01-01T07:44:02.005Z,1.70
2023-01-01T07:46:29.323Z,1.63
2023-01-01T07:48:57.053Z,1.50
2023-01-01T07:51:23.972Z,1.50
2023-01-01T07:53:50.959Z,1.53
2023-01-01T07:56:18.096Z,1.70
2023-01-01T07:58:45.005Z,1.43
2023-01-01T08:01:14.435Z,1.03
2023-01-01T08:03:41.454Z,1.60
2023-01-01T08:06:11.098Z,1.40
2023-01-01T08:08:38.567Z,1.37
2023-01-01T08:11:05.732Z,1.63
2023-01-01T08:13:32.595Z,1.43
2023-01-01T08:15:59.697Z,1.10
2023-01-01T08:18:26.875Z,1.93
2023-01-01T08:20:54.163Z,1.23
2023-01-01T08:23:21.057Z,1.70
2023-01-01T08:25:47.910Z,1.50
2023-01-01T08:28:14.727Z,1.70
2023-01-01T08:30:41.698Z,0.90
2023-01-01T08:33:08.555Z,1.40
2023-01-01T08:35:40.713Z,1.50
2023-01-01T08:38:10.567Z,1.40
2023-01-01T08:40:37.561Z,1.77
2023-01-01T08:43:04.515Z,1.70
2023-01-01T08:45:31.356Z,1.40
2023-01-01T08:47:58.321Z,1.57
2023-01-01T08:50:25.180Z,1.90
2023-01-01T08:52:52.020Z,1.70
2023-01-01T08:55:18.851Z,1.97
2023-01-01T08:57:45.695Z,1.33
2023-01-01T09:00:13.609Z,1.17
2023-01-01T09:02:40.625Z,1.53
2023-01-01T09:05:08.566Z,2.00
2023-01-01T09:07:35.537Z,1.33
2023-01-01T09:10:02.378Z,1.30
2023-01-01T09:12:29.643Z,1.30
2023-01-01T09:14:56.505Z,1.33
2023-01-01T09:17:23.311Z,1.50
2023-01-01T09:19:50.146Z,1.30
2023-01-01T09:22:17.015Z,0.87
2023-01-01T09:24:43.871Z,0.67
2023-01-01T09:27:10.715Z,1.80
2023-01-01T09:29:37.514Z,1.40
2023-01-01T09:32:04.813Z,1.60
2023-01-01T09:34:31.673Z,0.90
2023-01-01T09:36:58.541Z,1.60
2023-01-01T09:39:25.394Z,0.80
2023-01-01T09:42:33.529Z,1.90
2023-01-01T09:45:15.357Z,1.33
2023-01-01T09:47:51.500Z,1.07
2023-01-01T09:50:23.421Z,1.23
2023-01-01T09:52:57.714Z,1.33
2023-01-01T09:55:42.607Z,1.10
2023-01-01T09:58:11.986Z,1.20
2023-01-01T10:00:46.866Z,0.40
2023-01-01T10:03:51.799Z,0.93
2023-01-01T10:06:28.122Z,1.30
2023-01-01T10:09:16.553Z,0.40
2023-01-01T10:12:17.103Z,1.50
2023-01-01T10:15:00.545Z,0.40
2023-01-01T10:17:42.063Z,0.63
2023-01-01T10:20:22.816Z,1.23
2023-01-01T10:22:56.789Z,1.63
2023-01-01T10:25:27.867Z,0.70
2023-01-01T10:28:00.603Z,0.40
2023-01-01T10:30:29.292Z,1.50
2023-01-01T10:32:57.606Z,1.13
2023-01-01T10:35:40.136Z,1.33
2023-01-01T10:38:07.187Z,1.70
2023-01-01T10:40:34.428Z,1.33
2023-01-01T10:43:03.941Z,0.60
2023-01-01T10:45:36.740Z,1.03
2023-01-01T10:48:15.473Z,1.30
2023-01-01T10:50:44.970Z,1.60
2023-01-01T10:53:33.971Z,1.40
2023-01-01T10:56:06.542Z,1.40
2023-01-01T10:58:52.171Z,1.10
2023-01-01T11:01:19.066Z,1.40
2023-01-01T11:04:20.944Z,1.50
2023-01-01T11:06:48.415Z,1.57
2023-01-01T11:09:38.452Z,1.13
2023-01-01T11:12:54.566Z,1.63
2023-01-01T11:15:08.312Z,1.60
2023-01-01T11:17:36.942Z,1.17
2023-01-01T11:20:06.658Z,1.10
2023-01-01T11:22:47.167Z,1.03
2023-01-01T11:25:28.414Z,1.70
2023-01-01T11:28:21.340Z,1.90
2023-01-01T11:31:16.820Z,1.10
2023-01-01T11:33:55.320Z,1.30
2023-01-01T11:36:34.478Z,1.73
2023-01-01T11:39:37.485Z,1.40
2023-01-01T11:42:06.244Z,1.47
2023-01-01T11:44:43.836Z,1.17
2023-01-01T11:47:38.337Z,1.30
2023-01-01T11:50:14.286Z,1.47
2023-01-01T11:52:44.800Z,1.30
2023-01-01T11:55:37.957Z,1.20
2023-01-01T11:58:40.267Z,1.30
2023-01-01T12:01:21.500Z,1.80
2023-01-01T12:04:08.764Z,1.50
2023-01-01T12:07:24.144Z,1.00
2023-01-01T12:09:57.623Z,1.20
2023-01-01T12:12:37.099Z,1.40
2023-01-01T12:15:35.862Z,1.60
2023-01-01T12:18:32.204Z,1.30
2023-01-01T12:21:03.680Z,1.23
2023-01-01T12:23:32.496Z,1.80
2023-01-01T12:26:55.527Z,2.10
2023-01-01T12:29:37.589Z,2.17
2023-01-01T12:33:08.419Z,1.63
2023-01-01T12:36:16.210Z,1.60
2023-01-01T12:38:51.673Z,1.63
2023-01-01T12:42:01.957Z,2.07
2023-01-01T12:45:16.073Z,1.10
2023-01-01T12:48:00.551Z,3.23
2023-01-01T12:51:12.876Z,1.57
2023-01-01T12:53:52.376Z,1.57
2023-01-01T12:57:10.585Z,2.03
2023-01-01T12:59:42.478Z,1.47
2023-01-01T13:02:22.690Z,1.43
2023-01-01T13:04:56.315Z,1.53
2023-01-01T13:07:45.891Z,1.77
2023-01-01T13:10:46.782Z,1.27
2023-01-01T13:13:14.857Z,1.87
2023-01-01T13:15:43.033Z,1.33
2023-01-01T13:18:16.122Z,2.00
2023-01-01T13:21:03.084Z,2.00
2023-01-01T13:23:34.527Z,5.40
2023-01-01T13:26:22.702Z,5.53
2023-01-01T13:28:58.497Z,34.60
2023-01-01T13:31:40.494Z,8.47
2023-01-01T13:34:38.011Z,8.07
2023-01-01T13:37:10.827Z,4.17
2023-01-01T13:40:04.431Z,3.17
2023-01-01T13:42:52.905Z,3.10
2023-01-01T13:46:10.885Z,3.33
2023-01-01T13:48:57.577Z,2.90
2023-01-01T13:52:15.985Z,2.70
2023-01-01T13:55:19.775Z,2.40
2023-01-01T13:58:15.976Z,2.33
2023-01-01T14:01:20.703Z,2.47
2023-01-01T14:03:52.401Z,2.37
2023-01-01T14:06:39.579Z,2.70
2023-01-01T14:09:15.511Z,2.10
2023-01-01T14:11:42.564Z,2.97
2023-01-01T14:14:28.349Z,2.97
2023-01-01T14:17:01.820Z,2.53
2023-01-01T14:19:30.004Z,2.70
2023-01-01T14:21:57.231Z,3.40
2023-01-01T14:24:25.375Z,4.50
2023-01-01T14:26:54.859Z,3.77
2023-01-01T14:29:31.120Z,4.20
2023-01-01T14:32:02.199Z,3.60
2023-01-01T14:34:32.673Z,2.87
2023-01-01T14:37:06.332Z,3.00
2023-01-01T14:39:37.326Z,2.67
2023-01-01T14:42:07.070Z,2.23
2023-01-01T14:44:45.243Z,2.50
2023-01-01T14:47:29.575Z,2.60
2023-01-01T14:50:13.125Z,2.67
2023-01-01T14:52:40.473Z,3.00
2023-01-01T14:55:08.444Z,2.27
2023-01-01T14:57:37.351Z,2.13
2023-01-01T15:00:28.894Z,3.17
2023-01-01T15:03:05.523Z,2.40
2023-01-01T15:05:36.154Z,2.37
2023-01-01T15:08:07.501Z,2.60
2023-01-01T15:10:37.498Z,2.50
2023-01-01T15:13:07.801Z,2.40
2023-01-01T15:15:34.819Z,2.57
2023-01-01T15:18:01.765Z,2.63
2023-01-01T15:20:29.813Z,2.30
2023-01-01T15:22:56.706Z,2.10
2023-01-01T15:25:24.627Z,2.37
2023-01-01T15:27:54.593Z,2.50
2023-01-01T15:30:31.999Z,2.57
2023-01-01T15:33:13.982Z,2.80
2023-01-01T15:35:41.027Z,2.30
2023-01-01T15:38:21.161Z,2.47
2023-01-01T15:40:53.344Z,2.93
2023-01-01T15:43:31.595Z,3.23
2023-01-01T15:46:20.000Z,3.27
2023-01-01T15:48:52.330Z,3.30
2023-01-01T15:51:22.935Z,3.40
2023-01-01T15:54:00.546Z,3.83
2023-01-01T15:56:33.436Z,3.80
2023-01-01T15:59:09.793Z,3.87
2023-01-01T16:01:40.439Z,3.90
2023-01-01T16:04:27.997Z,3.67
2023-01-01T16:07:00.304Z,4.03
2023-01-01T16:09:27.450Z,4.53
2023-01-01T16:11:57.454Z,4.80
2023-01-01T16:14:25.317Z,4.33
2023-01-01T16:17:00.689Z,5.43
2023-01-01T16:19:30.964Z,5.40
2023-01-01T16:21:58.248Z,5.10
2023-01-01T16:24:25.320Z,6.03
2023-01-01T16:26:54.957Z,8.43
2023-01-01T16:29:21.819Z,11.40
2023-01-01T16:31:51.883Z,10.00
2023-01-01T16:34:18.719Z,6.20
2023-01-01T16:36:45.664Z,5.50
2023-01-01T16:39:12.860Z,5.73
2023-01-01T16:41:44.145Z,6.37
2023-01-01T16:44:17.502Z,5.93
2023-01-01T16:46:44.445Z,6.47
2023-01-01T16:49:11.333Z,7.30
2023-01-01T16:51:43.256Z,6.53
2023-01-01T16:54:10.947Z,6.60
2023-01-01T16:56:37.856Z,6.40
2023-01-01T16:59:04.683Z,6.87
2023-01-01T17:01:31.999Z,5.17
2023-01-01T17:03:59.734Z,5.47
2023-01-01T17:06:26.588Z,5.47
2023-01-01T17:08:53.627Z,6.57
2023-01-01T17:11:21.132Z,5.77
2023-01-01T17:13:48.521Z,4.37
2023-01-01T17:16:21.144Z,4.70
2023-01-01T17:19:14.470Z,4.47
2023-01-01T17:21:39.777Z,4.70
2023-01-01T17:24:07.155Z,3.17
2023-01-01T17:26:34.004Z,2.90
2023-01-01T17:29:02.952Z,2.90
2023-01-01T17:31:30.172Z,2.63
2023-01-01T17:33:57.602Z,3.00
2023-01-01T17:36:26.997Z,3.40
2023-01-01T17:38:53.876Z,4.50
2023-01-01T17:41:20.748Z,4.17
2023-01-01T17:43:50.804Z,3.90
2023-01-01T17:46:24.692Z,3.00
2023-01-01T17:48:52.270Z,3.40
2023-01-01T17:51:19.991Z,3.80
2023-01-01T17:53:47.887Z,3.60
2023-01-01T17:56:17.288Z,4.40
2023-01-01T17:58:46.383Z,4.47
2023-01-01T18:01:15.882Z,4.07
2023-01-01T18:03:43.096Z,4.53
2023-01-01T18:06:10.037Z,4.27
2023-01-01T18:08:36.966Z,3.87
2023-01-01T18:11:04.231Z,4.03
2023-01-01T18:13:32.117Z,4.80
2023-01-01T18:16:08.211Z,4.50
2023-01-01T18:18:39.316Z,4.57
2023-01-01T18:21:11.413Z,3.80
2023-01-01T18:23:39.942Z,4.60
2023-01-01T18:26:10.089Z,4.50
2023-01-01T18:28:37.270Z,3.77
2023-01-01T18:31:14.212Z,5.37
2023-01-01T18:33:41.695Z,5.60
2023-01-01T18:36:16.418Z,5.40
2023-01-01T18:39:01.414Z,5.57
2023-01-01T18:41:41.036Z,5.67
2023-01-01T18:44:26.447Z,5.43
2023-01-01T18:47:04.292Z,6.20
2023-01-01T18:49:32.712Z,5.77
2023-01-01T18:52:22.943Z,7.10
2023-01-01T18:55:08.494Z,4.93
2023-01-01T18:57:35.837Z,6.20
2023-01-01T19:00:21.193Z,6.23
2023-01-01T19:03:02.045Z,4.70
2023-01-01T19:05:35.224Z,6.70
2023-01-01T19:08:09.429Z,6.07
2023-01-01T19:10:53.676Z,4.43
2023-01-01T19:13:43.094Z,3.80
2023-01-01T19:16:13.056Z,4.03
2023-01-01T19:18:45.184Z,4.03
2023-01-01T19:21:11.960Z,5.27
2023-01-01T19:24:00.657Z,4.63
2023-01-01T19:26:33.300Z,4.50
2023-01-01T19:29:09.783Z,3.87
2023-01-01T19:31:36.691Z,4.67
2023-01-01T19:34:03.570Z,4.67
2023-01-01T19:36:30.778Z,3.43
2023-01-01T19:38:57.687Z,4.73
2023-01-01T19:41:31.744Z,5.00
2023-01-01T19:43:58.827Z,4.53
2023-01-01T19:46:25.691Z,6.60
2023-01-01T19:48:55.722Z,8.97
2023-01-01T19:51:22.956Z,6.07
2023-01-01T19:53:51.648Z,3.07
2023-01-01T19:56:18.714Z,3.40
2023-01-01T19:58:46.310Z,3.00
2023-01-01T20:01:14.422Z,3.30
2023-01-01T20:03:57.841Z,3.20
2023-01-01T20:06:25.486Z,3.20
2023-01-01T20:08:53.175Z,4.00
2023-01-01T20:11:20.947Z,2.80
2023-01-01T20:13:47.885Z,3.90
2023-01-01T20:16:14.774Z,3.10
2023-01-01T20:18:41.694Z,3.90
2023-01-01T20:21:27.238Z,3.50
2023-01-01T20:23:55.469Z,2.83
2023-01-01T20:26:23.870Z,3.27
2023-01-01T20:29:09.364Z,4.00
2023-01-01T20:31:36.635Z,4.03
2023-01-01T20:34:03.942Z,3.17
2023-01-01T20:36:49.413Z,2.93
2023-01-01T20:39:16.236Z,5.10
2023-01-01T20:41:43.097Z,4.40
2023-01-01T20:44:10.083Z,6.60
2023-01-01T20:46:38.348Z,11.47
2023-01-01T20:49:05.661Z,5.60
2023-01-01T20:51:33.094Z,5.70
2023-01-01T20:54:00.198Z,4.73
2023-01-01T20:56:27.032Z,3.80
2023-01-01T20:58:59.519Z,3.87
2023-01-01T21:01:30.031Z,5.10
2023-01-01T21:03:57.274Z,3.70
2023-01-01T21:06:24.966Z,3.10
2023-01-01T21:08:52.643Z,4.47
2023-01-01T21:11:19.461Z,4.10
2023-01-01T21:13:46.552Z,4.20
2023-01-01T21:16:30.639Z,4.80
2023-01-01T21:18:59.034Z,2.97
2023-01-01T21:21:30.346Z,3.27
2023-01-01T21:24:19.092Z,2.50
2023-01-01T21:26:46.116Z,4.00
2023-01-01T21:29:22.565Z,4.83
2023-01-01T21:32:04.081Z,4.30
2023-01-01T21:34:44.187Z,4.67
2023-01-01T21:37:43.966Z,4.40
2023-01-01T21:40:54.143Z,3.80
2023-01-01T21:43:39.917Z,3.13
2023-01-01T21:46:06.719Z,3.30
2023-01-01T21:48:42.727Z,1.67
2023-01-01T21:51:37.580Z,2.30
2023-01-01T21:54:10.522Z,1.07
2023-01-01T21:56:40.135Z,3.30
2023-01-01T21:59:27.108Z,2.93
2023-01-01T22:02:04.274Z,3.13
2023-01-01T22:04:39.731Z,1.37
2023-01-01T22:13:16.424Z,2.43
2023-01-01T22:15:44.455Z,3.50
2023-01-01T22:18:30.615Z,2.40
2023-01-01T22:20:58.191Z,1.73
2023-01-01T22:23:35.645Z,1.97
2023-01-01T22:26:27.827Z,1.40
2023-01-01T22:29:00.444Z,2.30
2023-01-01T22:31:34.269Z,2.30
2023-01-01T22:34:19.795Z,2.17
2023-01-01T22:36:46.847Z,0.90
2023-01-01T22:39:32.952Z,1.50
2023-01-01T22:41:59.823Z,2.07
2023-01-01T22:44:27.416Z,0.97
2023-01-01T22:46:58.612Z,2.30
2023-01-01T22:49:39.080Z,1.60
2023-01-01T22:52:07.530Z,1.83
2023-01-01T22:54:34.477Z,2.17
2023-01-01T22:57:01.725Z,2.00
2023-01-01T22:59:28.541Z,2.50
2023-01-01T23:01:57.660Z,2.10
2023-01-01T23:04:24.473Z,2.90
2023-01-01T23:09:19.855Z,2.80
2023-01-01T23:11:46.769Z,1.90
2023-01-01T23:14:38.798Z,3.00
2023-01-01T23:17:06.295Z,2.17
2023-01-01T23:19:33.241Z,2.23
2023-01-01T23:22:04.587Z,0.77
2023-01-01T23:24:32.413Z,2.27
2023-01-01T23:27:00.547Z,2.07
2023-01-01T23:29:30.995Z,1.67
2023-01-01T23:31:58.319Z,1.63
2023-01-01T23:34:25.472Z,2.00
2023-01-01T23:36:53.815Z,2.10
2023-01-01T23:39:20.691Z,1.73
2023-01-01T23:41:47.627Z,1.93
2023-01-01T23:44:14.450Z,2.13
2023-01-01T23:46:41.534Z,1.87
2023-01-01T23:49:08.613Z,2.47
2023-01-01T23:51:36.239Z,2.17
2023-01-01T23:54:03.125Z,2.40
2023-01-01T23:56:30.035Z,1.90
2023-01-01T23:58:56.937Z,2.07
